createdAt,value
2022-10-22T00:01:52.323Z,12.77
2022-10-22T00:04:20.764Z,13.35
2022-10-22T00:06:49.147Z,13.18
2022-10-22T00:09:19.128Z,13.45
2022-10-22T00:11:47.797Z,13.32
2022-10-22T00:14:16.498Z,13.20
2022-10-22T00:16:44.826Z,13.13
2022-10-22T00:19:13.652Z,13.31
2022-10-22T00:21:42.522Z,13.29
2022-10-22T00:24:10.920Z,13.29
2022-10-22T00:26:40.732Z,13.28
2022-10-22T00:29:09.190Z,12.87
2022-10-22T00:31:39.640Z,13.27
2022-10-22T00:34:08.140Z,13.24
2022-10-22T00:36:36.943Z,13.25
2022-10-22T00:39:05.402Z,13.24
2022-10-22T00:41:33.821Z,12.98
2022-10-22T00:44:05.679Z,13.29
2022-10-22T00:46:34.224Z,13.29
2022-10-22T00:49:05.303Z,13.36
2022-10-22T00:51:36.702Z,13.33
2022-10-22T00:54:08.830Z,13.40
2022-10-22T00:56:37.266Z,13.31
2022-10-22T01:01:37.483Z,13.29
2022-10-22T01:04:06.436Z,13.34
2022-10-22T01:06:35.372Z,13.40
2022-10-22T01:09:14.298Z,13.20
2022-10-22T01:11:56.376Z,13.34
2022-10-22T01:14:34.656Z,13.58
2022-10-22T01:17:09.062Z,13.31
2022-10-22T01:20:07.046Z,13.29
2022-10-22T01:22:41.864Z,13.28
2022-10-22T01:25:18.623Z,13.15
2022-10-22T01:28:03.057Z,13.06
2022-10-22T01:30:33.096Z,13.22
2022-10-22T01:33:04.837Z,13.10
2022-10-22T01:35:38.423Z,13.12
2022-10-22T01:38:10.351Z,13.17
2022-10-22T01:40:39.620Z,13.03
2022-10-22T01:43:10.362Z,13.18
2022-10-22T01:45:43.754Z,13.17
2022-10-22T01:48:28.227Z,13.18
2022-10-22T01:51:14.577Z,12.98
2022-10-22T01:53:51.154Z,13.14
2022-10-22T01:56:30.272Z,12.40
2022-10-22T01:59:07.444Z,13.20
2022-10-22T02:01:45.209Z,13.19
2022-10-22T02:04:19.776Z,13.17
2022-10-22T02:06:51.597Z,12.82
2022-10-22T02:09:23.473Z,13.02
2022-10-22T02:11:52.940Z,12.41
2022-10-22T02:14:22.816Z,12.95
2022-10-22T02:16:52.831Z,12.86
2022-10-22T02:19:26.902Z,13.04
2022-10-22T02:21:56.467Z,12.99
2022-10-22T02:24:26.314Z,13.04
2022-10-22T02:27:04.583Z,12.88
2022-10-22T02:29:39.737Z,12.96
2022-10-22T02:32:13.649Z,12.92
2022-10-22T02:34:42.714Z,12.93
2022-10-22T02:37:11.963Z,12.98
2022-10-22T02:39:41.265Z,13.08
2022-10-22T02:42:10.670Z,12.93
2022-10-22T02:44:39.294Z,12.92
2022-10-22T02:47:09.090Z,12.93
2022-10-22T02:49:37.632Z,13.00
2022-10-22T02:52:06.155Z,12.93
2022-10-22T02:54:34.849Z,12.84
2022-10-22T02:57:03.309Z,12.95
2022-10-22T02:59:31.666Z,12.96
2022-10-22T03:01:59.941Z,13.00
2022-10-22T03:04:30.059Z,13.09
2022-10-22T03:06:58.428Z,13.01
2022-10-22T03:09:26.874Z,12.97
2022-10-22T03:11:55.257Z,12.98
2022-10-22T03:14:24.059Z,13.00
2022-10-22T03:16:52.695Z,12.74
2022-10-22T03:19:21.127Z,13.03
2022-10-22T03:21:54.515Z,13.08
2022-10-22T03:24:24.111Z,12.90
2022-10-22T03:26:54.192Z,12.98
2022-10-22T03:29:25.183Z,11.96
2022-10-22T03:31:54.705Z,13.00
2022-10-22T03:34:23.734Z,12.81
2022-10-22T03:36:54.771Z,13.00
2022-10-22T03:39:23.651Z,13.03
2022-10-22T03:41:53.988Z,12.81
2022-10-22T03:44:23.812Z,12.91
2022-10-22T03:46:52.287Z,12.99
2022-10-22T03:49:20.631Z,13.10
2022-10-22T03:51:48.990Z,12.94
2022-10-22T03:54:19.540Z,13.06
2022-10-22T03:56:47.838Z,12.52
2022-10-22T03:59:16.557Z,12.62
2022-10-22T04:01:44.913Z,12.94
2022-10-22T04:04:13.257Z,12.88
2022-10-22T04:06:41.627Z,12.36
2022-10-22T04:09:10.131Z,13.14
2022-10-22T04:11:39.878Z,12.82
2022-10-22T04:14:08.339Z,12.77
2022-10-22T04:16:36.611Z,12.75
2022-10-22T04:19:05.100Z,12.51
2022-10-22T04:21:33.614Z,12.65
2022-10-22T04:24:02.632Z,12.50
2022-10-22T04:26:31.052Z,12.73
2022-10-22T04:29:01.569Z,12.66
2022-10-22T04:31:30.068Z,12.56
2022-10-22T04:34:01.186Z,12.60
2022-10-22T04:36:30.554Z,12.44
2022-10-22T04:39:00.614Z,12.25
2022-10-22T04:41:30.803Z,12.34
2022-10-22T04:44:01.282Z,12.35
2022-10-22T04:46:32.019Z,11.96
2022-10-22T04:49:00.814Z,12.00
2022-10-22T04:51:29.599Z,12.32
2022-10-22T04:53:58.196Z,12.31
2022-10-22T04:56:29.106Z,12.01
2022-10-22T04:58:59.784Z,12.33
2022-10-22T05:01:32.124Z,12.35
2022-10-22T05:04:02.655Z,12.33
2022-10-22T05:06:33.107Z,12.30
2022-10-22T05:09:03.552Z,12.28
2022-10-22T05:11:34.180Z,12.26
2022-10-22T05:14:04.963Z,12.16
2022-10-22T05:16:36.224Z,11.69
2022-10-22T05:19:05.429Z,12.20
2022-10-22T05:21:34.124Z,12.19
2022-10-22T05:24:04.210Z,12.19
2022-10-22T05:26:32.778Z,12.17
2022-10-22T05:29:01.204Z,12.18
2022-10-22T05:31:30.109Z,12.18
2022-10-22T05:33:59.952Z,12.25
2022-10-22T05:36:28.475Z,12.23
2022-10-22T05:38:56.827Z,12.38
2022-10-22T05:41:27.596Z,12.14
2022-10-22T05:43:57.251Z,12.26
2022-10-22T05:46:28.195Z,12.05
2022-10-22T05:48:58.365Z,12.25
2022-10-22T05:51:30.118Z,11.93
2022-10-22T05:54:00.109Z,12.18
2022-10-22T05:56:30.122Z,12.18
2022-10-22T05:58:58.568Z,12.25
2022-10-22T06:01:29.191Z,12.25
2022-10-22T06:03:58.755Z,12.07
2022-10-22T06:06:31.796Z,12.13
2022-10-22T06:09:04.319Z,12.09
2022-10-22T06:11:35.113Z,11.93
2022-10-22T06:14:04.051Z,11.91
2022-10-22T06:16:33.243Z,12.11
2022-10-22T06:19:02.300Z,11.86
2022-10-22T06:21:33.164Z,12.17
2022-10-22T06:24:02.973Z,12.17
2022-10-22T06:26:31.802Z,12.16
2022-10-22T06:29:00.410Z,12.16
2022-10-22T06:31:29.882Z,11.80
2022-10-22T06:33:58.427Z,12.17
2022-10-22T06:36:26.885Z,12.16
2022-10-22T06:38:57.796Z,12.16
2022-10-22T06:41:28.958Z,12.15
2022-10-22T06:43:58.975Z,12.11
2022-10-22T06:46:27.520Z,12.09
2022-10-22T06:48:58.155Z,11.92
2022-10-22T06:51:27.648Z,12.11
2022-10-22T06:53:58.500Z,12.12
2022-10-22T06:56:30.512Z,12.14
2022-10-22T06:59:00.772Z,12.12
2022-10-22T07:01:31.288Z,12.12
2022-10-22T07:04:00.094Z,12.12
2022-10-22T07:06:29.974Z,11.99
2022-10-22T07:09:01.456Z,12.15
2022-10-22T07:11:31.645Z,12.13
2022-10-22T07:14:01.363Z,12.12
2022-10-22T07:16:32.369Z,12.13
2022-10-22T07:19:01.285Z,12.16
2022-10-22T07:21:30.246Z,12.20
2022-10-22T07:24:01.772Z,12.04
2022-10-22T07:26:31.232Z,12.31
2022-10-22T07:28:59.919Z,12.10
2022-10-22T07:31:28.591Z,12.33
2022-10-22T07:33:57.062Z,12.27
2022-10-22T07:36:25.442Z,12.16
2022-10-22T07:38:56.724Z,12.21
2022-10-22T07:41:27.248Z,12.17
2022-10-22T07:43:56.763Z,12.13
2022-10-22T07:46:26.874Z,12.15
2022-10-22T07:48:55.576Z,12.10
2022-10-22T07:51:24.164Z,10.68
2022-10-22T07:53:52.752Z,12.13
2022-10-22T07:56:21.150Z,12.06
2022-10-22T07:58:51.044Z,12.05
2022-10-22T08:01:19.594Z,12.07
2022-10-22T08:03:49.068Z,12.11
2022-10-22T08:06:17.944Z,12.00
2022-10-22T08:08:47.103Z,12.07
2022-10-22T08:11:15.549Z,12.07
2022-10-22T08:13:45.542Z,12.11
2022-10-22T08:16:16.269Z,12.11
2022-10-22T08:18:44.830Z,12.18
2022-10-22T08:21:13.727Z,12.33
2022-10-22T08:23:42.082Z,12.15
2022-10-22T08:26:10.898Z,12.19
2022-10-22T08:28:39.413Z,12.18
2022-10-22T08:31:08.971Z,12.12
2022-10-22T08:33:38.983Z,11.89
2022-10-22T08:36:08.182Z,12.26
2022-10-22T08:38:37.125Z,12.24
2022-10-22T08:41:11.658Z,12.24
2022-10-22T08:44:12.526Z,12.40
2022-10-22T08:46:52.751Z,12.13
2022-10-22T08:49:26.013Z,12.15
2022-10-22T08:51:54.763Z,12.23
2022-10-22T08:54:34.948Z,12.16
2022-10-22T08:57:21.145Z,12.34
2022-10-22T08:59:55.991Z,12.35
2022-10-22T09:02:35.783Z,12.19
2022-10-22T09:05:17.803Z,12.21
2022-10-22T09:07:50.569Z,12.24
2022-10-22T09:10:21.756Z,12.39
2022-10-22T09:12:50.422Z,12.39
2022-10-22T09:15:21.581Z,12.32
2022-10-22T09:18:08.214Z,12.41
2022-10-22T09:20:47.134Z,12.51
2022-10-22T09:23:26.706Z,12.66
2022-10-22T09:25:55.825Z,12.75
2022-10-22T09:28:24.531Z,12.07
2022-10-22T09:33:33.356Z,12.79
2022-10-22T09:36:04.849Z,12.93
2022-10-22T09:38:35.930Z,12.92
2022-10-22T09:41:05.161Z,13.03
2022-10-22T09:43:34.033Z,12.92
2022-10-22T09:46:03.994Z,12.98
2022-10-22T09:48:35.279Z,13.04
2022-10-22T09:51:16.614Z,13.12
2022-10-22T09:53:46.364Z,12.99
2022-10-22T09:56:22.783Z,13.03
2022-10-22T09:58:52.733Z,13.11
2022-10-22T10:01:24.784Z,13.24
2022-10-22T10:03:53.499Z,13.23
2022-10-22T10:06:24.792Z,13.36
2022-10-22T10:08:53.258Z,13.42
2022-10-22T10:11:30.039Z,13.41
2022-10-22T10:14:10.155Z,13.12
2022-10-22T10:16:44.634Z,13.56
2022-10-22T10:19:28.064Z,13.50
2022-10-22T10:22:06.361Z,13.45
2022-10-22T10:24:46.811Z,13.66
2022-10-22T10:27:25.890Z,13.69
2022-10-22T10:30:03.903Z,13.95
2022-10-22T10:32:53.211Z,13.95
2022-10-22T10:35:27.248Z,13.54
2022-10-22T10:38:16.045Z,13.77
2022-10-22T10:40:49.836Z,14.01
2022-10-22T10:43:23.495Z,14.03
2022-10-22T10:45:57.109Z,14.03
2022-10-22T10:48:38.395Z,14.14
2022-10-22T10:51:24.524Z,14.28
2022-10-22T10:54:19.056Z,14.31
2022-10-22T10:56:51.957Z,14.31
2022-10-22T10:59:27.911Z,14.27
2022-10-22T11:02:13.088Z,14.32
2022-10-22T11:05:05.014Z,14.33
2022-10-22T11:07:42.546Z,14.31
2022-10-22T11:10:26.497Z,14.21
2022-10-22T11:12:58.475Z,14.35
2022-10-22T11:15:34.054Z,14.56
2022-10-22T11:18:08.851Z,14.73
2022-10-22T11:20:51.094Z,14.94
2022-10-22T11:23:27.482Z,15.00
2022-10-22T11:25:57.403Z,14.97
2022-10-22T11:28:30.341Z,15.24
2022-10-22T11:31:03.349Z,15.38
2022-10-22T11:33:39.967Z,15.52
2022-10-22T11:36:10.135Z,15.55
2022-10-22T11:38:39.053Z,15.64
2022-10-22T11:41:14.294Z,15.66
2022-10-22T11:44:01.157Z,15.36
2022-10-22T11:46:40.083Z,15.46
2022-10-22T11:49:20.331Z,15.49
2022-10-22T11:51:49.344Z,15.49
2022-10-22T11:54:43.073Z,15.49
2022-10-22T11:57:27.580Z,15.38
2022-10-22T12:00:00.222Z,15.67
2022-10-22T12:02:42.266Z,15.64
2022-10-22T12:05:44.348Z,15.54
2022-10-22T12:08:26.194Z,15.58
2022-10-22T12:11:04.502Z,15.58
2022-10-22T12:13:52.975Z,15.58
2022-10-22T12:16:32.443Z,15.56
2022-10-22T12:19:16.941Z,15.30
2022-10-22T12:21:50.095Z,15.63
2022-10-22T12:24:22.404Z,15.37
2022-10-22T12:26:52.878Z,15.61
2022-10-22T12:29:26.790Z,15.55
2022-10-22T12:31:56.347Z,15.53
2022-10-22T12:34:26.258Z,15.24
2022-10-22T12:36:55.306Z,15.36
2022-10-22T12:39:26.764Z,15.53
2022-10-22T12:41:56.220Z,15.51
2022-10-22T12:44:26.116Z,15.58
2022-10-22T12:46:57.111Z,15.61
2022-10-22T12:49:33.579Z,15.61
2022-10-22T12:52:03.976Z,15.51
2022-10-22T12:54:35.523Z,15.07
2022-10-22T12:57:03.986Z,15.56
2022-10-22T12:59:37.001Z,15.29
2022-10-22T13:02:17.786Z,15.16
2022-10-22T13:05:15.334Z,15.41
2022-10-22T13:07:48.515Z,15.42
2022-10-22T13:10:21.133Z,15.47
2022-10-22T13:12:55.617Z,15.41
2022-10-22T13:15:35.404Z,15.56
2022-10-22T13:18:05.690Z,15.41
2022-10-22T13:20:37.562Z,15.41
2022-10-22T13:23:07.567Z,15.34
2022-10-22T13:25:38.294Z,15.29
2022-10-22T13:28:21.166Z,15.23
2022-10-22T13:30:56.874Z,15.11
2022-10-22T13:33:28.193Z,15.24
2022-10-22T13:35:57.734Z,15.21
2022-10-22T13:38:28.120Z,15.16
2022-10-22T13:40:57.255Z,15.21
2022-10-22T13:43:26.524Z,15.11
2022-10-22T13:45:59.822Z,15.05
2022-10-22T13:48:30.498Z,14.79
2022-10-22T13:50:59.203Z,14.95
2022-10-22T13:53:30.230Z,14.93
2022-10-22T13:55:58.656Z,14.96
2022-10-22T13:58:26.981Z,14.93
2022-10-22T14:00:58.657Z,14.92
2022-10-22T14:03:31.609Z,14.92
2022-10-22T14:06:00.155Z,14.95
2022-10-22T14:08:29.564Z,14.95
2022-10-22T14:10:57.958Z,14.98
2022-10-22T14:13:26.822Z,14.99
2022-10-22T14:15:56.554Z,14.83
2022-10-22T14:18:29.100Z,14.95
2022-10-22T14:21:00.044Z,14.95
2022-10-22T14:23:30.838Z,14.39
2022-10-22T14:25:59.977Z,14.88
2022-10-22T14:28:29.658Z,14.89
2022-10-22T14:31:01.955Z,14.88
2022-10-22T14:33:33.371Z,14.86
2022-10-22T14:36:02.453Z,14.85
2022-10-22T14:38:31.290Z,14.85
2022-10-22T14:41:01.687Z,14.83
2022-10-22T14:43:31.984Z,14.55
2022-10-22T14:46:01.735Z,14.55
2022-10-22T14:48:30.528Z,14.79
2022-10-22T14:50:58.935Z,14.77
2022-10-22T14:53:27.319Z,14.56
2022-10-22T14:55:59.209Z,14.72
2022-10-22T14:58:27.687Z,14.72
2022-10-22T15:00:56.068Z,14.06
2022-10-22T15:03:25.974Z,14.69
2022-10-22T15:05:56.099Z,14.65
2022-10-22T15:08:24.556Z,14.67
2022-10-22T15:11:02.822Z,14.60
2022-10-22T15:13:31.973Z,14.54
2022-10-22T15:16:00.863Z,14.32
2022-10-22T15:18:31.052Z,14.50
2022-10-22T15:21:01.050Z,14.49
2022-10-22T15:23:30.179Z,14.43
2022-10-22T15:25:59.164Z,14.43
2022-10-22T15:28:27.679Z,14.36
2022-10-22T15:30:56.720Z,14.34
2022-10-22T15:33:25.166Z,14.38
2022-10-22T15:35:55.038Z,14.17
2022-10-22T15:41:05.311Z,14.21
2022-10-22T15:43:34.415Z,14.27
2022-10-22T15:46:12.594Z,14.21
2022-10-22T15:48:41.456Z,14.20
2022-10-22T15:51:13.590Z,14.22
2022-10-22T15:53:42.542Z,14.19
2022-10-22T15:56:13.064Z,14.00
2022-10-22T15:58:41.501Z,14.13
2022-10-22T16:01:12.039Z,13.90
2022-10-22T16:03:40.991Z,13.96
2022-10-22T16:06:09.848Z,13.91
2022-10-22T16:08:40.247Z,14.07
2022-10-22T16:11:08.902Z,14.01
2022-10-22T16:13:37.742Z,13.91
2022-10-22T16:16:08.286Z,13.95
2022-10-22T16:18:36.746Z,13.97
2022-10-22T16:21:05.309Z,13.92
2022-10-22T16:23:33.781Z,13.89
2022-10-22T16:26:04.475Z,13.91
2022-10-22T16:31:09.050Z,13.83
2022-10-22T16:33:41.555Z,13.80
2022-10-22T16:36:16.698Z,13.76
2022-10-22T16:38:45.863Z,13.75
2022-10-22T16:41:16.908Z,13.37
2022-10-22T16:43:47.208Z,13.68
2022-10-22T16:46:15.835Z,13.67
2022-10-22T16:48:47.055Z,13.67
2022-10-22T16:51:17.328Z,13.70
2022-10-22T16:53:45.921Z,13.66
2022-10-22T16:56:17.883Z,13.62
2022-10-22T16:58:48.403Z,13.64
2022-10-22T17:01:18.282Z,13.60
2022-10-22T17:03:47.266Z,13.28
2022-10-22T17:06:16.441Z,13.56
2022-10-22T17:08:45.082Z,13.38
2022-10-22T17:11:18.037Z,13.50
2022-10-22T17:13:48.912Z,13.46
2022-10-22T17:16:19.665Z,13.41
2022-10-22T17:18:49.001Z,13.35
2022-10-22T17:21:18.049Z,13.35
2022-10-22T17:23:46.907Z,13.09
2022-10-22T17:26:19.734Z,12.98
2022-10-22T17:28:48.389Z,13.13
2022-10-22T17:31:19.786Z,13.10
2022-10-22T17:33:49.368Z,12.88
2022-10-22T17:36:19.408Z,13.04
2022-10-22T17:38:50.828Z,12.97
2022-10-22T17:41:22.974Z,12.90
2022-10-22T17:43:51.532Z,12.83
2022-10-22T17:46:21.945Z,12.48
2022-10-22T17:48:51.855Z,12.75
2022-10-22T17:51:21.746Z,12.68
2022-10-22T17:53:51.768Z,12.61
2022-10-22T17:56:24.189Z,12.56
2022-10-22T17:58:52.988Z,12.54
2022-10-22T18:01:23.745Z,12.30
2022-10-22T18:03:52.697Z,12.39
2022-10-22T18:06:22.459Z,12.44
2022-10-22T18:11:32.083Z,12.36
2022-10-22T18:14:00.940Z,12.32
2022-10-22T18:16:31.115Z,12.30
2022-10-22T18:19:01.171Z,12.29
2022-10-22T18:21:32.796Z,12.29
2022-10-22T18:24:02.584Z,12.27
2022-10-22T18:26:32.974Z,12.26
2022-10-22T18:29:01.353Z,12.25
2022-10-22T18:31:30.820Z,12.22
2022-10-22T18:34:00.361Z,12.19
2022-10-22T18:36:30.878Z,12.12
2022-10-22T18:39:02.827Z,12.09
2022-10-22T18:41:34.728Z,12.05
2022-10-22T18:44:06.195Z,11.95
2022-10-22T18:46:38.519Z,12.00
2022-10-22T18:49:08.679Z,11.98
2022-10-22T18:51:38.578Z,11.55
2022-10-22T18:54:22.134Z,11.96
2022-10-22T18:56:58.070Z,11.92
2022-10-22T18:59:28.549Z,11.91
2022-10-22T19:01:59.988Z,11.92
2022-10-22T19:04:33.599Z,11.92
2022-10-22T19:07:02.217Z,11.81
2022-10-22T19:09:30.797Z,11.86
2022-10-22T19:12:02.050Z,11.79
2022-10-22T19:14:30.687Z,11.86
2022-10-22T19:16:59.378Z,11.86
2022-10-22T19:19:29.853Z,11.87
2022-10-22T19:22:00.098Z,11.72
2022-10-22T19:24:29.368Z,11.63
2022-10-22T19:26:58.019Z,11.88
2022-10-22T19:29:29.426Z,11.90
2022-10-22T19:31:59.233Z,11.90
2022-10-22T19:34:28.811Z,11.90
2022-10-22T19:36:58.398Z,11.90
2022-10-22T19:39:28.207Z,11.90
2022-10-22T19:41:56.687Z,11.89
2022-10-22T19:44:26.466Z,11.89
2022-10-22T19:46:57.560Z,11.86
2022-10-22T19:49:27.246Z,11.86
2022-10-22T19:51:56.427Z,11.85
2022-10-22T19:54:26.008Z,11.83
2022-10-22T19:56:55.499Z,11.80
2022-10-22T19:59:27.267Z,11.79
2022-10-22T20:01:59.955Z,11.74
2022-10-22T20:04:28.712Z,11.74
2022-10-22T20:06:57.723Z,11.71
2022-10-22T20:09:26.522Z,11.69
2022-10-22T20:11:56.181Z,11.69
2022-10-22T20:14:25.910Z,11.70
2022-10-22T20:16:55.724Z,11.39
2022-10-22T20:19:29.700Z,11.69
2022-10-22T20:24:34.107Z,11.68
2022-10-22T20:27:03.916Z,11.73
2022-10-22T20:29:34.075Z,11.76
2022-10-22T20:32:05.498Z,11.80
2022-10-22T20:34:41.838Z,11.83
2022-10-22T20:37:10.944Z,11.70
2022-10-22T20:39:41.374Z,11.75
2022-10-22T20:42:11.333Z,11.80
2022-10-22T20:44:41.488Z,11.78
2022-10-22T20:47:11.382Z,10.67
2022-10-22T20:49:42.775Z,11.82
2022-10-22T20:52:12.745Z,11.81
2022-10-22T20:54:45.241Z,11.80
2022-10-22T20:57:14.680Z,11.79
2022-10-22T20:59:43.243Z,11.80
2022-10-22T21:02:12.564Z,11.80
2022-10-22T21:04:45.516Z,11.78
2022-10-22T21:07:14.746Z,11.79
2022-10-22T21:09:43.227Z,11.80
2022-10-22T21:12:11.715Z,11.80
2022-10-22T21:14:40.080Z,11.81
2022-10-22T21:17:09.628Z,11.81
2022-10-22T21:19:38.169Z,11.80
2022-10-22T21:22:08.427Z,11.79
2022-10-22T21:24:36.776Z,11.81
2022-10-22T21:27:07.559Z,11.82
2022-10-22T21:29:36.020Z,11.70
2022-10-22T21:32:04.366Z,11.78
2022-10-22T21:34:38.068Z,11.77
2022-10-22T21:37:08.920Z,11.63
2022-10-22T21:39:41.214Z,11.71
2022-10-22T21:42:10.796Z,11.67
2022-10-22T21:44:39.167Z,11.65
2022-10-22T21:47:07.566Z,11.63
2022-10-22T21:49:35.884Z,11.60
2022-10-22T21:52:07.023Z,11.56
2022-10-22T21:54:37.721Z,11.49
2022-10-22T21:57:06.178Z,11.48
2022-10-22T21:59:36.999Z,11.44
2022-10-22T22:02:06.232Z,11.36
2022-10-22T22:04:34.811Z,11.32
2022-10-22T22:07:03.239Z,11.28
2022-10-22T22:09:31.620Z,11.25
2022-10-22T22:12:01.650Z,11.01
2022-10-22T22:14:30.822Z,10.88
2022-10-22T22:16:59.615Z,11.17
2022-10-22T22:19:28.035Z,11.13
2022-10-22T22:21:56.422Z,11.08
2022-10-22T22:24:24.811Z,10.99
2022-10-22T22:26:53.267Z,11.03
2022-10-22T22:29:23.319Z,11.01
2022-10-22T22:31:51.676Z,10.96
2022-10-22T22:34:20.090Z,10.81
2022-10-22T22:36:49.524Z,10.93
2022-10-22T22:39:20.114Z,10.90
2022-10-22T22:41:49.029Z,10.85
2022-10-22T22:44:17.762Z,10.83
2022-10-22T22:46:47.530Z,10.81
2022-10-22T22:49:16.278Z,10.53
2022-10-22T22:51:44.906Z,10.82
2022-10-22T22:54:13.320Z,10.78
2022-10-22T22:56:41.816Z,10.77
2022-10-22T22:59:11.840Z,10.73
2022-10-22T23:01:40.889Z,10.71
2022-10-22T23:04:13.530Z,10.70
2022-10-22T23:06:42.150Z,10.37
2022-10-22T23:09:13.676Z,10.62
2022-10-22T23:11:43.102Z,10.64
2022-10-22T23:14:13.903Z,10.61
2022-10-22T23:16:45.622Z,10.59
2022-10-22T23:19:17.283Z,10.59
2022-10-22T23:21:48.362Z,10.56
2022-10-22T23:24:19.611Z,10.59
2022-10-22T23:26:49.823Z,10.56
2022-10-22T23:29:20.138Z,10.56
2022-10-22T23:31:49.391Z,10.53
2022-10-22T23:34:21.215Z,10.20
2022-10-22T23:36:50.091Z,10.50
2022-10-22T23:39:21.652Z,10.40
2022-10-22T23:41:50.126Z,10.47
2022-10-22T23:44:18.687Z,10.43
2022-10-22T23:46:47.113Z,10.50
2022-10-22T23:49:16.136Z,10.52
2022-10-22T23:51:46.211Z,10.48
2022-10-22T23:54:17.916Z,10.49
2022-10-22T23:56:46.378Z,10.53
